sensor_id;sensor_type;location;lat;lon;timestamp;P1;P2;P0
72031;PMS5003;49185;42.320;23.198;2022-10-16T00:00:34;12.00;10.25;4.00
72031;PMS5003;49185;42.320;23.198;2022-10-16T00:03:01;6.00;6.00;3.00
72031;PMS5003;49185;42.320;23.198;2022-10-16T00:05:27;5.50;5.00;2.00
72031;PMS5003;49185;42.320;23.198;2022-10-16T00:07:53;6.00;5.50;3.00
72031;PMS5003;49185;42.320;23.198;2022-10-16T00:10:19;7.00;6.00;2.00
72031;PMS5003;49185;42.320;23.198;2022-10-16T00:12:44;8.00;7.00;3.67
72031;PMS5003;49185;42.320;23.198;2022-10-16T00:15:09;6.67;5.33;3.00
72031;PMS5003;49185;42.320;23.198;2022-10-16T00:17:35;6.00;6.00;3.00
72031;PMS5003;49185;42.320;23.198;2022-10-16T00:20:00;8.67;7.00;2.67
72031;PMS5003;49185;42.320;23.198;2022-10-16T00:22:26;5.33;5.00;2.00
72031;PMS5003;49185;42.320;23.198;2022-10-16T00:24:52;9.00;7.33;3.00
72031;PMS5003;49185;42.320;23.198;2022-10-16T00:27:17;8.00;7.00;5.00
72031;PMS5003;49185;42.320;23.198;2022-10-16T00:29:43;5.75;5.50;2.00
72031;PMS5003;49185;42.320;23.198;2022-10-16T00:32:09;6.00;4.00;2.00
72031;PMS5003;49185;42.320;23.198;2022-10-16T00:34:34;7.00;5.33;3.00
72031;PMS5003;49185;42.320;23.198;2022-10-16T00:37:00;6.00;6.00;2.00
72031;PMS5003;49185;42.320;23.198;2022-10-16T00:39:25;6.00;6.00;3.00
72031;PMS5003;49185;42.320;23.198;2022-10-16T00:41:51;7.00;7.00;3.00
72031;PMS5003;49185;42.320;23.198;2022-10-16T00:47:18;7.00;7.00;2.75
72031;PMS5003;49185;42.320;23.198;2022-10-16T00:49:46;6.00;6.00;2.00
72031;PMS5003;49185;42.320;23.198;2022-10-16T00:52:15;5.50;5.00;3.00
72031;PMS5003;49185;42.320;23.198;2022-10-16T00:54:41;7.00;7.00;4.00
72031;PMS5003;49185;42.320;23.198;2022-10-16T00:57:07;6.50;6.50;4.00
72031;PMS5003;49185;42.320;23.198;2022-10-16T00:59:34;7.75;5.25;2.25
72031;PMS5003;49185;42.320;23.198;2022-10-16T01:02:04;7.00;7.00;4.00
72031;PMS5003;49185;42.320;23.198;2022-10-16T01:04:35;8.50;8.50;4.25
72031;PMS5003;49185;42.320;23.198;2022-10-16T01:15:17;9.00;7.00;5.00
72031;PMS5003;49185;42.320;23.198;2022-10-16T01:22:54;8.00;6.00;3.00
72031;PMS5003;49185;42.320;23.198;2022-10-16T01:28:34;7.00;6.00;2.00
72031;PMS5003;49185;42.320;23.198;2022-10-16T01:31:04;5.50;5.50;2.00
72031;PMS5003;49185;42.320;23.198;2022-10-16T01:33:51;8.50;6.50;4.00
72031;PMS5003;49185;42.320;23.198;2022-10-16T01:36:27;9.50;9.25;4.00
72031;PMS5003;49185;42.320;23.198;2022-10-16T01:38:59;8.75;6.25;4.00
72031;PMS5003;49185;42.320;23.198;2022-10-16T01:41:31;7.00;5.00;3.00
72031;PMS5003;49185;42.320;23.198;2022-10-16T01:44:06;7.00;7.00;3.75
72031;PMS5003;49185;42.320;23.198;2022-10-16T01:46:36;9.50;8.00;3.50
72031;PMS5003;49185;42.320;23.198;2022-10-16T01:49:04;9.00;6.25;3.00
72031;PMS5003;49185;42.320;23.198;2022-10-16T01:51:34;6.00;5.00;2.75
72031;PMS5003;49185;42.320;23.198;2022-10-16T01:54:02;7.00;7.00;4.00
72031;PMS5003;49185;42.320;23.198;2022-10-16T01:56:30;7.00;6.50;3.50
72031;PMS5003;49185;42.320;23.198;2022-10-16T01:59:01;7.75;7.75;4.00
72031;PMS5003;49185;42.320;23.198;2022-10-16T02:01:32;9.00;8.00;4.00
72031;PMS5003;49185;42.320;23.198;2022-10-16T02:04:02;10.00;8.50;3.50
72031;PMS5003;49185;42.320;23.198;2022-10-16T02:06:32;9.00;7.00;4.00
72031;PMS5003;49185;42.320;23.198;2022-10-16T02:08:58;9.00;7.00;4.00
72031;PMS5003;49185;42.320;23.198;2022-10-16T02:11:24;9.00;7.75;4.00
72031;PMS5003;49185;42.320;23.198;2022-10-16T02:13:53;8.00;6.00;4.00
72031;PMS5003;49185;42.320;23.198;2022-10-16T02:16:32;8.00;6.00;2.00
72031;PMS5003;49185;42.320;23.198;2022-10-16T02:19:02;9.00;7.25;4.00
72031;PMS5003;49185;42.320;23.198;2022-10-16T02:21:29;10.00;9.75;3.00
72031;PMS5003;49185;42.320;23.198;2022-10-16T02:29:20;7.50;6.25;3.00
72031;PMS5003;49185;42.320;23.198;2022-10-16T02:31:50;7.75;6.25;3.00
72031;PMS5003;49185;42.320;23.198;2022-10-16T02:34:21;7.00;7.00;2.00
72031;PMS5003;49185;42.320;23.198;2022-10-16T02:36:50;6.25;6.00;2.00
72031;PMS5003;49185;42.320;23.198;2022-10-16T02:39:18;6.75;6.75;3.00
72031;PMS5003;49185;42.320;23.198;2022-10-16T02:41:45;6.50;6.00;2.00
72031;PMS5003;49185;42.320;23.198;2022-10-16T02:44:11;7.67;6.00;3.00
72031;PMS5003;49185;42.320;23.198;2022-10-16T02:46:36;9.33;7.00;4.00
72031;PMS5003;49185;42.320;23.198;2022-10-16T02:49:02;7.00;6.00;3.00
72031;PMS5003;49185;42.320;23.198;2022-10-16T02:51:28;5.00;5.00;2.00
72031;PMS5003;49185;42.320;23.198;2022-10-16T02:53:53;6.00;5.33;2.00
72031;PMS5003;49185;42.320;23.198;2022-10-16T02:56:19;8.33;7.33;3.00
72031;PMS5003;49185;42.320;23.198;2022-10-16T02:58:44;9.00;7.00;4.00
72031;PMS5003;49185;42.320;23.198;2022-10-16T03:01:10;6.00;5.00;3.67
72031;PMS5003;49185;42.320;23.198;2022-10-16T03:03:35;8.50;8.00;3.00
72031;PMS5003;49185;42.320;23.198;2022-10-16T03:06:01;7.67;7.00;3.00
72031;PMS5003;49185;42.320;23.198;2022-10-16T03:08:26;9.00;7.67;3.00
72031;PMS5003;49185;42.320;23.198;2022-10-16T03:10:52;10.67;9.00;4.00
72031;PMS5003;49185;42.320;23.198;2022-10-16T03:13:17;7.00;6.00;4.00
72031;PMS5003;49185;42.320;23.198;2022-10-16T03:15:43;7.33;6.00;4.00
72031;PMS5003;49185;42.320;23.198;2022-10-16T03:18:08;5.75;5.25;2.00
72031;PMS5003;49185;42.320;23.198;2022-10-16T03:20:34;7.00;7.00;4.00
72031;PMS5003;49185;42.320;23.198;2022-10-16T03:23:00;5.00;5.00;3.00
72031;PMS5003;49185;42.320;23.198;2022-10-16T03:25:25;8.00;7.00;3.00
72031;PMS5003;49185;42.320;23.198;2022-10-16T03:27:50;9.00;6.00;2.33
72031;PMS5003;49185;42.320;23.198;2022-10-16T03:30:16;6.00;6.00;2.00
72031;PMS5003;49185;42.320;23.198;2022-10-16T03:32:42;6.00;6.00;2.00
72031;PMS5003;49185;42.320;23.198;2022-10-16T03:35:09;7.00;7.00;4.00
72031;PMS5003;49185;42.320;23.198;2022-10-16T03:37:35;7.00;7.00;3.00
72031;PMS5003;49185;42.320;23.198;2022-10-16T03:40:01;8.75;8.50;3.00
72031;PMS5003;49185;42.320;23.198;2022-10-16T03:42:28;12.00;9.00;3.00
72031;PMS5003;49185;42.320;23.198;2022-10-16T03:44:53;8.00;6.67;3.00
72031;PMS5003;49185;42.320;23.198;2022-10-16T03:47:18;7.00;6.00;3.00
72031;PMS5003;49185;42.320;23.198;2022-10-16T03:49:44;8.00;6.00;3.00
72031;PMS5003;49185;42.320;23.198;2022-10-16T03:52:09;12.67;10.67;4.00
72031;PMS5003;49185;42.320;23.198;2022-10-16T03:54:35;15.00;14.00;5.00
72031;PMS5003;49185;42.320;23.198;2022-10-16T03:57:00;14.00;13.00;4.00
72031;PMS5003;49185;42.320;23.198;2022-10-16T03:59:26;12.00;10.00;4.00
72031;PMS5003;49185;42.320;23.198;2022-10-16T04:01:51;13.00;11.00;5.67
72031;PMS5003;49185;42.320;23.198;2022-10-16T04:04:17;12.33;11.00;6.00
72031;PMS5003;49185;42.320;23.198;2022-10-16T04:06:42;13.00;9.67;4.00
72031;PMS5003;49185;42.320;23.198;2022-10-16T04:09:08;12.00;9.00;5.00
72031;PMS5003;49185;42.320;23.198;2022-10-16T04:11:33;10.00;9.00;4.00
72031;PMS5003;49185;42.320;23.198;2022-10-16T04:13:59;11.33;10.00;5.67
72031;PMS5003;49185;42.320;23.198;2022-10-16T04:16:24;13.00;13.00;7.00
72031;PMS5003;49185;42.320;23.198;2022-10-16T04:18:50;13.00;12.67;6.33
72031;PMS5003;49185;42.320;23.198;2022-10-16T04:21:15;15.00;13.00;6.00
72031;PMS5003;49185;42.320;23.198;2022-10-16T04:23:41;13.33;12.33;5.00
72031;PMS5003;49185;42.320;23.198;2022-10-16T04:26:07;12.00;11.00;4.50
72031;PMS5003;49185;42.320;23.198;2022-10-16T04:28:33;13.33;13.00;6.00
72031;PMS5003;49185;42.320;23.198;2022-10-16T04:30:58;14.00;14.00;7.00
72031;PMS5003;49185;42.320;23.198;2022-10-16T04:33:24;16.00;14.00;6.00
72031;PMS5003;49185;42.320;23.198;2022-10-16T04:35:55;15.00;14.67;7.67
72031;PMS5003;49185;42.320;23.198;2022-10-16T04:38:22;23.50;22.50;14.75
72031;PMS5003;49185;42.320;23.198;2022-10-16T04:40:47;39.33;32.67;20.33
72031;PMS5003;49185;42.320;23.198;2022-10-16T04:43:12;45.33;37.00;23.00
72031;PMS5003;49185;42.320;23.198;2022-10-16T04:45:38;47.00;38.33;24.00
72031;PMS5003;49185;42.320;23.198;2022-10-16T04:48:03;45.00;37.00;24.00
72031;PMS5003;49185;42.320;23.198;2022-10-16T04:50:29;42.00;34.33;22.00
72031;PMS5003;49185;42.320;23.198;2022-10-16T04:52:54;42.00;33.33;21.00
72031;PMS5003;49185;42.320;23.198;2022-10-16T04:55:20;42.00;33.00;19.00
72031;PMS5003;49185;42.320;23.198;2022-10-16T04:57:45;52.67;41.00;25.33
72031;PMS5003;49185;42.320;23.198;2022-10-16T05:00:11;60.00;50.75;30.00
72031;PMS5003;49185;42.320;23.198;2022-10-16T05:02:37;50.25;40.75;25.25
72031;PMS5003;49185;42.320;23.198;2022-10-16T05:05:02;57.00;45.33;27.33
72031;PMS5003;49185;42.320;23.198;2022-10-16T05:07:28;54.25;41.50;25.75
72031;PMS5003;49185;42.320;23.198;2022-10-16T05:09:53;44.00;34.33;22.00
72031;PMS5003;49185;42.320;23.198;2022-10-16T05:12:19;40.00;33.00;21.00
72031;PMS5003;49185;42.320;23.198;2022-10-16T05:14:44;42.33;34.33;21.00
72031;PMS5003;49185;42.320;23.198;2022-10-16T05:17:10;43.00;35.00;19.33
72031;PMS5003;49185;42.320;23.198;2022-10-16T05:19:35;41.00;32.33;20.00
72031;PMS5003;49185;42.320;23.198;2022-10-16T05:22:00;39.00;31.33;19.33
72031;PMS5003;49185;42.320;23.198;2022-10-16T05:24:26;43.33;34.33;21.33
72031;PMS5003;49185;42.320;23.198;2022-10-16T05:26:51;45.33;35.67;23.00
72031;PMS5003;49185;42.320;23.198;2022-10-16T05:29:17;41.00;33.00;21.00
72031;PMS5003;49185;42.320;23.198;2022-10-16T05:31:43;34.50;28.00;17.00
72031;PMS5003;49185;42.320;23.198;2022-10-16T05:34:09;25.67;22.33;15.00
72031;PMS5003;49185;42.320;23.198;2022-10-16T05:36:34;22.00;19.00;13.00
72031;PMS5003;49185;42.320;23.198;2022-10-16T05:39:00;18.00;16.33;8.33
72031;PMS5003;49185;42.320;23.198;2022-10-16T05:41:25;18.00;17.00;6.00
72031;PMS5003;49185;42.320;23.198;2022-10-16T05:43:51;19.33;17.67;5.33
72031;PMS5003;49185;42.320;23.198;2022-10-16T05:46:17;18.00;16.00;6.25
72031;PMS5003;49185;42.320;23.198;2022-10-16T05:48:42;21.33;18.33;9.00
72031;PMS5003;49185;42.320;23.198;2022-10-16T05:51:12;22.75;19.00;9.75
72031;PMS5003;49185;42.320;23.198;2022-10-16T05:53:39;22.00;19.75;11.00
72031;PMS5003;49185;42.320;23.198;2022-10-16T05:56:05;33.75;28.25;18.75
72031;PMS5003;49185;42.320;23.198;2022-10-16T05:58:35;39.50;32.00;21.00
72031;PMS5003;49185;42.320;23.198;2022-10-16T06:01:05;39.25;34.00;21.00
72031;PMS5003;49185;42.320;23.198;2022-10-16T06:03:41;37.00;30.50;20.00
72031;PMS5003;49185;42.320;23.198;2022-10-16T06:06:10;31.00;28.00;17.50
72031;PMS5003;49185;42.320;23.198;2022-10-16T06:08:40;21.50;21.50;15.00
72031;PMS5003;49185;42.320;23.198;2022-10-16T06:11:08;16.00;16.00;8.50
72031;PMS5003;49185;42.320;23.198;2022-10-16T06:13:35;14.00;13.00;7.00
72031;PMS5003;49185;42.320;23.198;2022-10-16T06:16:01;16.00;14.00;6.00
72031;PMS5003;49185;42.320;23.198;2022-10-16T06:18:28;14.00;12.50;6.50
72031;PMS5003;49185;42.320;23.198;2022-10-16T06:20:54;16.25;15.00;7.00
72031;PMS5003;49185;42.320;23.198;2022-10-16T06:23:21;16.75;14.50;6.00
72031;PMS5003;49185;42.320;23.198;2022-10-16T06:25:47;16.50;16.25;7.00
72031;PMS5003;49185;42.320;23.198;2022-10-16T06:28:16;15.00;14.00;6.00
72031;PMS5003;49185;42.320;23.198;2022-10-16T06:30:42;13.25;13.00;6.00
72031;PMS5003;49185;42.320;23.198;2022-10-16T06:33:07;15.75;13.75;6.00
72031;PMS5003;49185;42.320;23.198;2022-10-16T06:35:33;14.00;13.00;4.33
72031;PMS5003;49185;42.320;23.198;2022-10-16T06:37:58;14.00;14.00;6.00
72031;PMS5003;49185;42.320;23.198;2022-10-16T06:40:24;16.33;16.00;6.00
72031;PMS5003;49185;42.320;23.198;2022-10-16T06:42:49;15.00;13.00;6.00
72031;PMS5003;49185;42.320;23.198;2022-10-16T06:45:15;15.00;13.00;5.00
72031;PMS5003;49185;42.320;23.198;2022-10-16T06:47:40;14.00;13.00;6.00
72031;PMS5003;49185;42.320;23.198;2022-10-16T06:50:06;12.00;12.00;5.33
72031;PMS5003;49185;42.320;23.198;2022-10-16T06:52:31;14.00;14.00;6.00
72031;PMS5003;49185;42.320;23.198;2022-10-16T06:54:57;14.00;14.00;6.33
72031;PMS5003;49185;42.320;23.198;2022-10-16T06:57:23;15.00;14.00;7.00
72031;PMS5003;49185;42.320;23.198;2022-10-16T06:59:48;14.00;11.33;5.00
72031;PMS5003;49185;42.320;23.198;2022-10-16T07:02:14;16.00;14.33;6.67
72031;PMS5003;49185;42.320;23.198;2022-10-16T07:04:39;15.00;14.00;8.00
72031;PMS5003;49185;42.320;23.198;2022-10-16T07:07:04;14.33;14.33;7.00
72031;PMS5003;49185;42.320;23.198;2022-10-16T07:09:30;13.33;13.33;7.00
72031;PMS5003;49185;42.320;23.198;2022-10-16T07:11:55;17.00;15.00;7.00
72031;PMS5003;49185;42.320;23.198;2022-10-16T07:14:21;15.00;14.00;7.00
72031;PMS5003;49185;42.320;23.198;2022-10-16T07:16:46;16.33;15.33;7.00
72031;PMS5003;49185;42.320;23.198;2022-10-16T07:19:13;19.00;17.00;7.25
72031;PMS5003;49185;42.320;23.198;2022-10-16T07:21:40;18.00;17.00;7.00
72031;PMS5003;49185;42.320;23.198;2022-10-16T07:24:06;16.50;15.00;7.00
72031;PMS5003;49185;42.320;23.198;2022-10-16T07:26:41;16.00;15.00;6.00
72031;PMS5003;49185;42.320;23.198;2022-10-16T07:29:14;17.75;17.00;6.00
72031;PMS5003;49185;42.320;23.198;2022-10-16T07:31:43;18.50;18.00;7.00
72031;PMS5003;49185;42.320;23.198;2022-10-16T07:34:09;18.00;16.00;7.00
72031;PMS5003;49185;42.320;23.198;2022-10-16T07:36:36;18.00;18.00;7.00
72031;PMS5003;49185;42.320;23.198;2022-10-16T07:39:01;18.00;17.00;7.67
72031;PMS5003;49185;42.320;23.198;2022-10-16T07:41:28;19.25;17.25;9.00
72031;PMS5003;49185;42.320;23.198;2022-10-16T07:43:53;17.67;16.33;7.00
72031;PMS5003;49185;42.320;23.198;2022-10-16T07:46:20;17.25;16.75;9.00
72031;PMS5003;49185;42.320;23.198;2022-10-16T07:48:47;18.00;17.00;8.75
72031;PMS5003;49185;42.320;23.198;2022-10-16T07:51:14;20.00;17.00;9.50
72031;PMS5003;49185;42.320;23.198;2022-10-16T07:53:41;21.75;20.25;11.00
72031;PMS5003;49185;42.320;23.198;2022-10-16T07:56:07;20.00;18.00;8.25
72031;PMS5003;49185;42.320;23.198;2022-10-16T07:58:34;21.00;19.00;8.50
72031;PMS5003;49185;42.320;23.198;2022-10-16T08:01:03;19.00;18.00;7.50
72031;PMS5003;49185;42.320;23.198;2022-10-16T08:03:30;19.00;16.50;9.00
72031;PMS5003;49185;42.320;23.198;2022-10-16T08:05:56;20.00;17.00;7.00
72031;PMS5003;49185;42.320;23.198;2022-10-16T08:08:23;18.50;17.50;9.50
72031;PMS5003;49185;42.320;23.198;2022-10-16T08:10:49;14.00;13.00;5.00
72031;PMS5003;49185;42.320;23.198;2022-10-16T08:13:14;15.00;13.00;6.00
72031;PMS5003;49185;42.320;23.198;2022-10-16T08:15:40;17.00;12.00;6.33
72031;PMS5003;49185;42.320;23.198;2022-10-16T08:18:06;15.00;13.00;7.00
72031;PMS5003;49185;42.320;23.198;2022-10-16T08:20:32;15.00;14.00;7.00
72031;PMS5003;49185;42.320;23.198;2022-10-16T08:22:58;16.00;13.00;6.00
72031;PMS5003;49185;42.320;23.198;2022-10-16T08:25:25;16.00;14.00;6.00
72031;PMS5003;49185;42.320;23.198;2022-10-16T08:27:50;16.00;16.00;7.67
72031;PMS5003;49185;42.320;23.198;2022-10-16T08:30:17;17.00;16.00;7.00
72031;PMS5003;49185;42.320;23.198;2022-10-16T08:32:44;14.00;14.00;6.00
72031;PMS5003;49185;42.320;23.198;2022-10-16T08:35:10;17.33;16.00;7.00
72031;PMS5003;49185;42.320;23.198;2022-10-16T08:37:36;16.00;15.25;7.00
72031;PMS5003;49185;42.320;23.198;2022-10-16T08:40:02;14.00;14.00;6.00
72031;PMS5003;49185;42.320;23.198;2022-10-16T08:45:12;14.00;13.00;4.00
72031;PMS5003;49185;42.320;23.198;2022-10-16T08:50:35;18.25;17.00;7.50
72031;PMS5003;49185;42.320;23.198;2022-10-16T08:53:03;17.00;15.25;6.25
72031;PMS5003;49185;42.320;23.198;2022-10-16T08:55:31;16.00;15.00;7.00
72031;PMS5003;49185;42.320;23.198;2022-10-16T08:58:18;16.00;14.75;6.50
72031;PMS5003;49185;42.320;23.198;2022-10-16T09:00:46;16.00;15.00;6.00
72031;PMS5003;49185;42.320;23.198;2022-10-16T09:19:58;16.75;14.25;5.75
72031;PMS5003;49185;42.320;23.198;2022-10-16T09:22:28;19.00;16.00;8.00
72031;PMS5003;49185;42.320;23.198;2022-10-16T09:24:59;16.00;13.00;5.00
72031;PMS5003;49185;42.320;23.198;2022-10-16T09:27:35;15.00;13.00;5.00
72031;PMS5003;49185;42.320;23.198;2022-10-16T09:30:01;15.75;13.75;6.00
72031;PMS5003;49185;42.320;23.198;2022-10-16T09:32:35;16.00;15.25;5.00
72031;PMS5003;49185;42.320;23.198;2022-10-16T09:35:03;14.00;14.00;6.00
72031;PMS5003;49185;42.320;23.198;2022-10-16T09:37:28;16.00;15.00;6.25
72031;PMS5003;49185;42.320;23.198;2022-10-16T09:39:55;12.25;11.50;6.00
72031;PMS5003;49185;42.320;23.198;2022-10-16T09:42:22;10.00;9.00;5.00
72031;PMS5003;49185;42.320;23.198;2022-10-16T09:44:53;8.75;8.75;5.00
72031;PMS5003;49185;42.320;23.198;2022-10-16T09:47:23;8.33;8.33;4.00
72031;PMS5003;49185;42.320;23.198;2022-10-16T09:49:51;13.00;12.75;5.25
72031;PMS5003;49185;42.320;23.198;2022-10-16T09:52:28;11.25;11.25;4.25
72031;PMS5003;49185;42.320;23.198;2022-10-16T09:54:59;12.00;11.00;5.00
72031;PMS5003;49185;42.320;23.198;2022-10-16T09:57:37;12.00;11.00;5.00
72031;PMS5003;49185;42.320;23.198;2022-10-16T10:00:15;12.00;11.00;5.00
72031;PMS5003;49185;42.320;23.198;2022-10-16T10:02:42;10.25;10.00;4.00
72031;PMS5003;49185;42.320;23.198;2022-10-16T10:05:21;8.00;8.00;3.25
72031;PMS5003;49185;42.320;23.198;2022-10-16T10:07:58;9.25;9.00;4.00
72031;PMS5003;49185;42.320;23.198;2022-10-16T10:10:26;7.50;7.50;2.00
72031;PMS5003;49185;42.320;23.198;2022-10-16T10:12:54;9.75;9.25;5.00
72031;PMS5003;49185;42.320;23.198;2022-10-16T10:15:21;9.00;8.50;3.00
72031;PMS5003;49185;42.320;23.198;2022-10-16T10:17:48;8.00;8.00;3.00
72031;PMS5003;49185;42.320;23.198;2022-10-16T10:20:29;8.00;7.00;3.25
72031;PMS5003;49185;42.320;23.198;2022-10-16T10:22:56;7.50;7.00;3.50
72031;PMS5003;49185;42.320;23.198;2022-10-16T10:28:24;8.75;8.75;5.00
72031;PMS5003;49185;42.320;23.198;2022-10-16T10:31:13;8.00;8.00;5.50
72031;PMS5003;49185;42.320;23.198;2022-10-16T10:36:39;6.00;6.00;3.00
72031;PMS5003;49185;42.320;23.198;2022-10-16T10:47:22;6.50;6.50;4.00
72031;PMS5003;49185;42.320;23.198;2022-10-16T10:58:15;7.00;6.75;4.00
72031;PMS5003;49185;42.320;23.198;2022-10-16T11:06:25;6.00;6.00;3.00
72031;PMS5003;49185;42.320;23.198;2022-10-16T11:08:53;6.00;6.00;3.00
72031;PMS5003;49185;42.320;23.198;2022-10-16T11:11:25;6.75;6.75;1.25
72031;PMS5003;49185;42.320;23.198;2022-10-16T11:16:26;7.67;7.00;3.00
72031;PMS5003;49185;42.320;23.198;2022-10-16T11:19:05;6.00;6.00;2.00
72031;PMS5003;49185;42.320;23.198;2022-10-16T11:21:47;5.00;5.00;2.00
72031;PMS5003;49185;42.320;23.198;2022-10-16T11:24:20;6.00;6.00;2.50
72031;PMS5003;49185;42.320;23.198;2022-10-16T11:26:54;5.75;5.75;2.00
72031;PMS5003;49185;42.320;23.198;2022-10-16T11:29:25;4.75;4.75;2.00
72031;PMS5003;49185;42.320;23.198;2022-10-16T11:31:58;5.50;5.00;3.00
72031;PMS5003;49185;42.320;23.198;2022-10-16T11:37:27;4.00;4.00;2.00
72031;PMS5003;49185;42.320;23.198;2022-10-16T11:40:10;3.00;3.00;2.00
72031;PMS5003;49185;42.320;23.198;2022-10-16T11:42:46;3.50;2.25;1.00
72031;PMS5003;49185;42.320;23.198;2022-10-16T11:47:50;4.75;4.00;1.00
72031;PMS5003;49185;42.320;23.198;2022-10-16T11:50:25;5.00;4.00;1.00
72031;PMS5003;49185;42.320;23.198;2022-10-16T11:53:00;4.75;4.00;1.00
72031;PMS5003;49185;42.320;23.198;2022-10-16T11:55:41;3.25;2.50;0.25
72031;PMS5003;49185;42.320;23.198;2022-10-16T12:03:35;4.00;4.00;0.00
72031;PMS5003;49185;42.320;23.198;2022-10-16T12:09:02;5.00;5.00;1.00
72031;PMS5003;49185;42.320;23.198;2022-10-16T12:14:07;5.00;4.67;0.00
72031;PMS5003;49185;42.320;23.198;2022-10-16T12:19:17;4.00;4.00;0.25
72031;PMS5003;49185;42.320;23.198;2022-10-16T12:21:43;5.75;4.75;2.00
72031;PMS5003;49185;42.320;23.198;2022-10-16T12:26:48;5.25;5.00;2.00
72031;PMS5003;49185;42.320;23.198;2022-10-16T12:30:00;6.25;5.25;3.00
72031;PMS5003;49185;42.320;23.198;2022-10-16T12:32:21;4.75;4.75;2.00
72031;PMS5003;49185;42.320;23.198;2022-10-16T12:34:49;3.00;3.00;1.00
72031;PMS5003;49185;42.320;23.198;2022-10-16T12:39:49;7.00;6.75;2.50
72031;PMS5003;49185;42.320;23.198;2022-10-16T12:42:23;4.00;4.00;2.00
72031;PMS5003;49185;42.320;23.198;2022-10-16T12:44:57;6.50;6.00;2.25
72031;PMS5003;49185;42.320;23.198;2022-10-16T12:47:24;8.00;7.00;4.00
72031;PMS5003;49185;42.320;23.198;2022-10-16T12:50:02;4.00;4.00;2.00
72031;PMS5003;49185;42.320;23.198;2022-10-16T12:52:34;4.50;4.00;1.00
72031;PMS5003;49185;42.320;23.198;2022-10-16T12:55:03;7.00;6.00;1.00
72031;PMS5003;49185;42.320;23.198;2022-10-16T12:57:34;5.50;5.00;1.00
72031;PMS5003;49185;42.320;23.198;2022-10-16T13:02:54;3.75;3.75;0.00
72031;PMS5003;49185;42.320;23.198;2022-10-16T13:10:55;10.00;8.00;3.00
72031;PMS5003;49185;42.320;23.198;2022-10-16T13:29:53;14.75;12.25;6.00
72031;PMS5003;49185;42.320;23.198;2022-10-16T13:32:25;16.00;12.00;5.00
72031;PMS5003;49185;42.320;23.198;2022-10-16T13:34:51;6.50;5.00;2.00
72031;PMS5003;49185;42.320;23.198;2022-10-16T13:37:18;6.67;5.67;1.33
72031;PMS5003;49185;42.320;23.198;2022-10-16T13:39:45;6.00;5.00;2.00
72031;PMS5003;49185;42.320;23.198;2022-10-16T13:44:47;5.00;4.75;1.00
72031;PMS5003;49185;42.320;23.198;2022-10-16T13:47:19;3.00;3.00;1.00
72031;PMS5003;49185;42.320;23.198;2022-10-16T13:49:46;2.00;2.00;1.00
72031;PMS5003;49185;42.320;23.198;2022-10-16T13:52:37;3.50;3.50;0.00
72031;PMS5003;49185;42.320;23.198;2022-10-16T13:55:02;5.00;3.50;0.00
72031;PMS5003;49185;42.320;23.198;2022-10-16T13:57:29;4.25;4.25;0.00
72031;PMS5003;49185;42.320;23.198;2022-10-16T13:59:54;5.67;5.00;0.00
72031;PMS5003;49185;42.320;23.198;2022-10-16T14:02:36;6.00;6.00;1.00
72031;PMS5003;49185;42.320;23.198;2022-10-16T14:05:04;7.00;7.00;3.75
72031;PMS5003;49185;42.320;23.198;2022-10-16T14:07:34;6.00;6.00;4.00
72031;PMS5003;49185;42.320;23.198;2022-10-16T14:10:02;5.00;5.00;4.00
72031;PMS5003;49185;42.320;23.198;2022-10-16T14:12:30;5.50;5.00;4.00
72031;PMS5003;49185;42.320;23.198;2022-10-16T14:14:57;7.00;6.00;4.00
72031;PMS5003;49185;42.320;23.198;2022-10-16T14:19:59;14.25;13.00;7.00
72031;PMS5003;49185;42.320;23.198;2022-10-16T14:24:52;17.00;16.00;7.33
72031;PMS5003;49185;42.320;23.198;2022-10-16T14:27:24;17.00;16.00;7.33
72031;PMS5003;49185;42.320;23.198;2022-10-16T14:30:01;12.75;11.50;4.50
72031;PMS5003;49185;42.320;23.198;2022-10-16T14:32:34;8.50;8.50;4.25
72031;PMS5003;49185;42.320;23.198;2022-10-16T14:34:59;10.00;10.00;5.00
72031;PMS5003;49185;42.320;23.198;2022-10-16T14:37:25;12.00;12.00;6.67
72031;PMS5003;49185;42.320;23.198;2022-10-16T14:39:52;13.00;13.00;5.50
72031;PMS5003;49185;42.320;23.198;2022-10-16T14:42:20;11.00;10.00;5.00
72031;PMS5003;49185;42.320;23.198;2022-10-16T14:44:47;11.00;11.00;5.75
72031;PMS5003;49185;42.320;23.198;2022-10-16T14:47:13;10.00;10.00;4.00
72031;PMS5003;49185;42.320;23.198;2022-10-16T14:49:42;11.00;10.00;4.50
72031;PMS5003;49185;42.320;23.198;2022-10-16T14:52:11;14.00;13.00;5.00
72031;PMS5003;49185;42.320;23.198;2022-10-16T14:54:37;11.75;10.75;5.00
72031;PMS5003;49185;42.320;23.198;2022-10-16T14:57:03;15.00;14.00;5.00
72031;PMS5003;49185;42.320;23.198;2022-10-16T14:59:36;16.25;14.00;6.00
72031;PMS5003;49185;42.320;23.198;2022-10-16T15:02:25;17.00;15.75;7.00
72031;PMS5003;49185;42.320;23.198;2022-10-16T15:04:54;16.25;16.00;6.50
72031;PMS5003;49185;42.320;23.198;2022-10-16T15:07:20;18.00;17.25;7.00
72031;PMS5003;49185;42.320;23.198;2022-10-16T15:09:46;21.50;18.75;11.00
72031;PMS5003;49185;42.320;23.198;2022-10-16T15:12:11;21.00;21.00;11.67
72031;PMS5003;49185;42.320;23.198;2022-10-16T15:14:37;19.00;19.00;10.00
72031;PMS5003;49185;42.320;23.198;2022-10-16T15:17:02;18.00;18.00;8.00
72031;PMS5003;49185;42.320;23.198;2022-10-16T15:19:28;16.00;16.00;6.00
72031;PMS5003;49185;42.320;23.198;2022-10-16T15:21:54;10.00;10.00;5.00
72031;PMS5003;49185;42.320;23.198;2022-10-16T15:24:19;7.00;7.00;4.00
72031;PMS5003;49185;42.320;23.198;2022-10-16T15:26:45;8.33;8.00;4.67
72031;PMS5003;49185;42.320;23.198;2022-10-16T15:29:11;10.50;9.50;5.50
72031;PMS5003;49185;42.320;23.198;2022-10-16T15:31:37;16.00;14.50;9.00
72031;PMS5003;49185;42.320;23.198;2022-10-16T15:34:03;39.25;33.00;19.75
72031;PMS5003;49185;42.320;23.198;2022-10-16T15:36:29;41.00;36.00;21.00
72031;PMS5003;49185;42.320;23.198;2022-10-16T15:38:59;48.00;38.25;25.00
72031;PMS5003;49185;42.320;23.198;2022-10-16T15:41:24;42.50;34.25;22.75
72031;PMS5003;49185;42.320;23.198;2022-10-16T15:43:50;25.00;25.00;18.00
72031;PMS5003;49185;42.320;23.198;2022-10-16T15:46:18;18.50;18.25;11.00
72031;PMS5003;49185;42.320;23.198;2022-10-16T15:48:45;16.25;15.00;6.00
72031;PMS5003;49185;42.320;23.198;2022-10-16T15:51:11;15.00;13.00;5.00
72031;PMS5003;49185;42.320;23.198;2022-10-16T15:53:37;13.00;12.00;5.00
72031;PMS5003;49185;42.320;23.198;2022-10-16T15:56:05;8.33;8.33;5.00
72031;PMS5003;49185;42.320;23.198;2022-10-16T15:58:32;12.50;12.50;6.25
72031;PMS5003;49185;42.320;23.198;2022-10-16T16:00:59;14.50;14.50;7.50
72031;PMS5003;49185;42.320;23.198;2022-10-16T16:03:25;18.50;17.50;10.75
72031;PMS5003;49185;42.320;23.198;2022-10-16T16:05:51;19.00;19.00;10.00
72031;PMS5003;49185;42.320;23.198;2022-10-16T16:08:16;23.67;22.33;14.00
72031;PMS5003;49185;42.320;23.198;2022-10-16T16:10:42;31.00;28.00;18.33
72031;PMS5003;49185;42.320;23.198;2022-10-16T16:13:07;34.00;29.67;18.67